createdAt,value
2023-05-01T00:27:28.459Z,74.25
2023-05-01T00:56:25.765Z,79.94
2023-05-01T01:25:39.327Z,81.12
2023-05-01T01:54:35.089Z,80.04
2023-05-01T02:23:37.401Z,84.11
2023-05-01T02:52:35.559Z,87.95
2023-05-01T03:21:38.365Z,87.2
2023-05-01T03:50:38.320Z,85.39
2023-05-01T04:19:37.498Z,88.41
2023-05-01T04:48:35.333Z,83.8
2023-05-01T05:17:37.959Z,83.67
2023-05-01T05:46:34.476Z,81.83
2023-05-01T06:15:42.900Z,82.27
2023-05-01T06:44:42.771Z,88.49
2023-05-01T07:13:40.555Z,94.97
2023-05-01T07:42:49.059Z,92.94
2023-05-01T08:11:59.833Z,77.31
2023-05-01T08:41:14.353Z,68.98
2023-05-01T09:10:20.934Z,70.35
2023-05-01T09:39:25.065Z,60.91
2023-05-01T10:08:23.163Z,57.14
2023-05-01T10:37:45.781Z,53.58
2023-05-01T11:06:43.265Z,52.88
2023-05-01T11:35:19.198Z,55.46
2023-05-01T12:04:17.917Z,59.11
2023-05-01T12:32:39.834Z,85.17
2023-05-01T13:01:17.852Z,83.81
2023-05-01T13:30:17.893Z,76.99
2023-05-01T13:59:22.648Z,64.06
2023-05-01T14:28:12.945Z,69.16
2023-05-01T14:57:19.797Z,69.32
2023-05-01T15:26:03.982Z,66.58
2023-05-01T15:54:39.472Z,64.46
2023-05-01T16:23:41.706Z,66.53
2023-05-01T16:52:45.626Z,68.6
2023-05-01T17:21:56.617Z,60.89
2023-05-01T17:50:53.575Z,60.46
2023-05-01T18:19:59.305Z,62.96
2023-05-01T18:48:33.021Z,66.32
2023-05-01T19:17:23.029Z,77.55
2023-05-01T19:46:18.470Z,82.01
2023-05-01T20:14:42.548Z,88.68
2023-05-01T20:43:32.494Z,96.56
2023-05-01T21:12:42.338Z,90.7
2023-05-01T21:41:29.219Z,96.18
2023-05-01T22:10:19.021Z,99.13
2023-05-01T22:39:22.332Z,99.17
2023-05-01T23:07:36.718Z,97.84
2023-05-01T23:36:26.416Z,100
